Terminal Aerodrome Forecast
Issued by NWS

Home | Current Version | Previous Version | Text Only | Print | Product List | Glossary On
Versions: 1 2 3 4 5 6 7 8 9 10 11 12 13 14 15 16 17
000
FTUS43 KOAX 070520
TAFBFF
TAF
KBFF 070520Z 0706/0806 09008KT 4SM HZ OVC050
     FM070900 13007KT 3SM BR OVC030
     FM071500 13010G20KT P6SM OVC050=

USA.gov is the U.S. government's official web portal to all federal, state and local government web resources and services.